Main page
METAR-TAF:

METAR-TAF

Airports :

Wilkes-Barre/Scranton International Airport

Wilkes-Barre / Scranton, Pennsylvania, United States

latitude: 41-20-20N, longitude: 075-43-36W, elevation: 961 ft

Current weather observation

The report was made 36 minutes ago, at 03:54 UTC
Calm wind
Temperature 30°F
Humidity 59%
Pressure 30.30 in. Hg
Visibility: 10 miles
Clear sky

METAR: KAVP 240354Z 00000KT 10SM CLR M01/M08 A3030 RMK AO2 SLP270 T10061078

Time: 23:30 (04:30 UTC)

Forecast

The report was made 5 hours and 10 minutes ago, at 23:20 UTC
Forecast valid from 24 at 00 UTC to 24 at 24 UTC
Wind 2 mph from the East/Southeast
Visibility: 6 miles
Broken clouds at a height of 20000 ft
From 24 at 1600 UTC
Wind 6 mph from the South/Southeast
Visibility: 6 miles
Scattered clouds at a height of 1500 ft
Broken clouds at a height of 15000 ft

TAF: KAVP 232320Z 2400/2424 11002KT P6SM BKN200 FM241600 15005KT P6SM SCT015 BKN150

Weather observations and forecasts of more than 4000 airports (METAR and TAF reports).

The available stations are represented by yellow and red dots on the map.

Hover mouse over dot to see the name of the station.

Then click to see weather observations and forecasts.

To change the map : click on the green buttons with a black cross to zoom in, on the green button with a dash to zoom out, or on the green arrows for adjacent maps.


METAR-TAF: